sensor_id;sensor_type;location;lat;lon;timestamp;temperature;humidity
58519;DHT22;44310;48.106;12.008;2023-04-29T00:01:22;17.20;92.70
58519;DHT22;44310;48.106;12.008;2023-04-29T00:03:49;17.30;92.70
58519;DHT22;44310;48.106;12.008;2023-04-29T00:06:17;17.30;92.70
58519;DHT22;44310;48.106;12.008;2023-04-29T00:08:44;17.40;92.90
58519;DHT22;44310;48.106;12.008;2023-04-29T00:11:11;17.40;93.10
58519;DHT22;44310;48.106;12.008;2023-04-29T00:13:38;17.50;93.20
58519;DHT22;44310;48.106;12.008;2023-04-29T00:16:07;17.50;93.20
58519;DHT22;44310;48.106;12.008;2023-04-29T00:18:37;17.50;93.20
58519;DHT22;44310;48.106;12.008;2023-04-29T00:21:04;17.60;93.40
58519;DHT22;44310;48.106;12.008;2023-04-29T00:23:33;17.70;93.50
58519;DHT22;44310;48.106;12.008;2023-04-29T00:26:00;17.60;93.40
58519;DHT22;44310;48.106;12.008;2023-04-29T00:28:27;17.60;93.40
58519;DHT22;44310;48.106;12.008;2023-04-29T00:30:54;17.60;93.80
58519;DHT22;44310;48.106;12.008;2023-04-29T00:33:22;17.60;93.70
58519;DHT22;44310;48.106;12.008;2023-04-29T00:35:50;17.10;93.30
58519;DHT22;44310;48.106;12.008;2023-04-29T00:38:17;17.90;93.50
58519;DHT22;44310;48.106;12.008;2023-04-29T00:40:44;17.50;93.40
58519;DHT22;44310;48.106;12.008;2023-04-29T00:43:11;17.50;93.40
58519;DHT22;44310;48.106;12.008;2023-04-29T00:45:39;17.80;93.50
58519;DHT22;44310;48.106;12.008;2023-04-29T00:48:06;17.40;93.50
58519;DHT22;44310;48.106;12.008;2023-04-29T00:50:34;17.40;93.50
58519;DHT22;44310;48.106;12.008;2023-04-29T00:53:02;17.40;93.50
58519;DHT22;44310;48.106;12.008;2023-04-29T00:55:32;17.50;94.10
58519;DHT22;44310;48.106;12.008;2023-04-29T00:58:00;17.50;94.20
58519;DHT22;44310;48.106;12.008;2023-04-29T01:00:29;17.30;94.20
58519;DHT22;44310;48.106;12.008;2023-04-29T01:02:59;17.60;94.30
58519;DHT22;44310;48.106;12.008;2023-04-29T01:05:26;18.00;94.30
58519;DHT22;44310;48.106;12.008;2023-04-29T01:10:57;17.50;93.90
58519;DHT22;44310;48.106;12.008;2023-04-29T01:13:42;17.60;94.00
58519;DHT22;44310;48.106;12.008;2023-04-29T01:16:16;17.50;94.00
58519;DHT22;44310;48.106;12.008;2023-04-29T01:18:49;17.50;94.00
58519;DHT22;44310;48.106;12.008;2023-04-29T01:21:20;17.50;94.00
58519;DHT22;44310;48.106;12.008;2023-04-29T01:23:47;17.50;94.00
58519;DHT22;44310;48.106;12.008;2023-04-29T01:26:22;17.50;94.00
58519;DHT22;44310;48.106;12.008;2023-04-29T01:28:54;17.50;93.90
58519;DHT22;44310;48.106;12.008;2023-04-29T01:31:31;17.50;93.90
58519;DHT22;44310;48.106;12.008;2023-04-29T01:37:34;17.50;94.00
58519;DHT22;44310;48.106;12.008;2023-04-29T01:40:11;17.50;94.00
58519;DHT22;44310;48.106;12.008;2023-04-29T01:42:45;17.50;93.90
58519;DHT22;44310;48.106;12.008;2023-04-29T01:45:15;17.50;93.90
58519;DHT22;44310;48.106;12.008;2023-04-29T01:47:48;17.20;93.90
58519;DHT22;44310;48.106;12.008;2023-04-29T01:50:18;17.50;93.90
58519;DHT22;44310;48.106;12.008;2023-04-29T01:52:45;17.50;93.90
58519;DHT22;44310;48.106;12.008;2023-04-29T01:55:12;17.50;93.90
58519;DHT22;44310;48.106;12.008;2023-04-29T01:57:39;17.50;94.20
58519;DHT22;44310;48.106;12.008;2023-04-29T02:00:07;17.60;94.60
58519;DHT22;44310;48.106;12.008;2023-04-29T02:02:34;17.60;94.70
58519;DHT22;44310;48.106;12.008;2023-04-29T02:05:02;17.60;94.80
58519;DHT22;44310;48.106;12.008;2023-04-29T02:07:29;17.70;94.90
58519;DHT22;44310;48.106;12.008;2023-04-29T02:09:56;17.70;95.00
58519;DHT22;44310;48.106;12.008;2023-04-29T02:12:23;17.70;95.10
58519;DHT22;44310;48.106;12.008;2023-04-29T02:14:53;17.60;94.90
58519;DHT22;44310;48.106;12.008;2023-04-29T02:17:21;17.70;94.80
58519;DHT22;44310;48.106;12.008;2023-04-29T02:19:48;17.60;94.80
58519;DHT22;44310;48.106;12.008;2023-04-29T02:22:15;17.60;94.80
58519;DHT22;44310;48.106;12.008;2023-04-29T02:24:42;17.80;94.80
58519;DHT22;44310;48.106;12.008;2023-04-29T02:27:09;17.50;95.00
58519;DHT22;44310;48.106;12.008;2023-04-29T02:29:37;17.90;94.80
58519;DHT22;44310;48.106;12.008;2023-04-29T02:32:04;17.50;94.70
58519;DHT22;44310;48.106;12.008;2023-04-29T02:34:32;17.50;94.70
58519;DHT22;44310;48.106;12.008;2023-04-29T02:36:59;17.60;95.30
58519;DHT22;44310;48.106;12.008;2023-04-29T02:39:26;17.70;95.70
58519;DHT22;44310;48.106;12.008;2023-04-29T02:41:54;17.70;95.70
58519;DHT22;44310;48.106;12.008;2023-04-29T02:44:22;17.70;95.80
58519;DHT22;44310;48.106;12.008;2023-04-29T02:46:49;17.80;95.90
58519;DHT22;44310;48.106;12.008;2023-04-29T02:49:16;17.10;95.80
58519;DHT22;44310;48.106;12.008;2023-04-29T02:51:43;17.80;95.90
58519;DHT22;44310;48.106;12.008;2023-04-29T02:54:10;17.80;95.90
58519;DHT22;44310;48.106;12.008;2023-04-29T02:56:38;17.80;95.90
58519;DHT22;44310;48.106;12.008;2023-04-29T02:59:05;17.70;95.70
58519;DHT22;44310;48.106;12.008;2023-04-29T03:01:32;17.70;95.50
58519;DHT22;44310;48.106;12.008;2023-04-29T03:03:59;17.60;95.40
58519;DHT22;44310;48.106;12.008;2023-04-29T03:06:26;17.60;95.30
58519;DHT22;44310;48.106;12.008;2023-04-29T03:08:54;17.60;95.20
58519;DHT22;44310;48.106;12.008;2023-04-29T03:11:21;17.50;95.20
58519;DHT22;44310;48.106;12.008;2023-04-29T03:13:50;17.70;95.20
58519;DHT22;44310;48.106;12.008;2023-04-29T03:16:17;17.50;95.20
58519;DHT22;44310;48.106;12.008;2023-04-29T03:18:44;17.60;95.20
58519;DHT22;44310;48.106;12.008;2023-04-29T03:21:11;17.60;95.20
58519;DHT22;44310;48.106;12.008;2023-04-29T03:23:38;17.50;95.20
58519;DHT22;44310;48.106;12.008;2023-04-29T03:26:06;17.50;95.20
58519;DHT22;44310;48.106;12.008;2023-04-29T03:28:33;17.60;95.40
58519;DHT22;44310;48.106;12.008;2023-04-29T03:31:00;17.60;95.70
58519;DHT22;44310;48.106;12.008;2023-04-29T03:33:27;17.80;95.90
58519;DHT22;44310;48.106;12.008;2023-04-29T03:35:55;17.80;95.90
58519;DHT22;44310;48.106;12.008;2023-04-29T03:38:22;17.80;95.90
58519;DHT22;44310;48.106;12.008;2023-04-29T03:40:49;17.80;95.90
58519;DHT22;44310;48.106;12.008;2023-04-29T03:43:16;18.00;95.90
58519;DHT22;44310;48.106;12.008;2023-04-29T03:45:43;17.70;95.90
58519;DHT22;44310;48.106;12.008;2023-04-29T03:48:10;17.70;95.90
58519;DHT22;44310;48.106;12.008;2023-04-29T03:50:38;17.70;95.90
58519;DHT22;44310;48.106;12.008;2023-04-29T03:53:05;17.70;95.90
58519;DHT22;44310;48.106;12.008;2023-04-29T03:55:32;17.70;96.00
58519;DHT22;44310;48.106;12.008;2023-04-29T03:57:59;17.80;96.10
58519;DHT22;44310;48.106;12.008;2023-04-29T04:00:26;17.80;96.20
58519;DHT22;44310;48.106;12.008;2023-04-29T04:02:57;17.80;96.30
58519;DHT22;44310;48.106;12.008;2023-04-29T04:05:25;17.80;96.30
58519;DHT22;44310;48.106;12.008;2023-04-29T04:07:53;17.80;96.40
58519;DHT22;44310;48.106;12.008;2023-04-29T04:10:20;17.90;96.50
58519;DHT22;44310;48.106;12.008;2023-04-29T04:12:47;18.60;96.60
58519;DHT22;44310;48.106;12.008;2023-04-29T04:15:14;17.80;96.40
58519;DHT22;44310;48.106;12.008;2023-04-29T04:17:42;17.80;96.40
58519;DHT22;44310;48.106;12.008;2023-04-29T04:20:10;17.70;96.30
58519;DHT22;44310;48.106;12.008;2023-04-29T04:22:37;17.70;96.30
58519;DHT22;44310;48.106;12.008;2023-04-29T04:25:05;17.80;96.30
58519;DHT22;44310;48.106;12.008;2023-04-29T04:27:33;17.70;96.30
58519;DHT22;44310;48.106;12.008;2023-04-29T04:30:00;17.70;96.30
58519;DHT22;44310;48.106;12.008;2023-04-29T04:32:27;17.70;96.20
58519;DHT22;44310;48.106;12.008;2023-04-29T04:34:54;17.60;96.10
58519;DHT22;44310;48.106;12.008;2023-04-29T04:37:21;17.70;96.10
58519;DHT22;44310;48.106;12.008;2023-04-29T04:39:48;17.70;96.10
58519;DHT22;44310;48.106;12.008;2023-04-29T04:42:15;17.60;95.90
58519;DHT22;44310;48.106;12.008;2023-04-29T04:44:43;17.60;95.90
58519;DHT22;44310;48.106;12.008;2023-04-29T04:47:10;17.60;95.90
58519;DHT22;44310;48.106;12.008;2023-04-29T04:49:37;17.60;95.90
58519;DHT22;44310;48.106;12.008;2023-04-29T04:52:04;17.80;95.90
58519;DHT22;44310;48.106;12.008;2023-04-29T04:54:32;17.50;95.80
58519;DHT22;44310;48.106;12.008;2023-04-29T04:56:59;17.50;95.70
58519;DHT22;44310;48.106;12.008;2023-04-29T04:59:26;17.60;95.70
58519;DHT22;44310;48.106;12.008;2023-04-29T05:01:53;17.50;95.80
58519;DHT22;44310;48.106;12.008;2023-04-29T05:04:20;17.60;96.00
58519;DHT22;44310;48.106;12.008;2023-04-29T05:06:47;18.20;96.40
58519;DHT22;44310;48.106;12.008;2023-04-29T05:09:14;17.70;96.30
58519;DHT22;44310;48.106;12.008;2023-04-29T05:11:42;17.70;96.50
58519;DHT22;44310;48.106;12.008;2023-04-29T05:14:09;17.60;96.20
58519;DHT22;44310;48.106;12.008;2023-04-29T05:16:36;17.70;96.20
58519;DHT22;44310;48.106;12.008;2023-04-29T05:19:04;17.70;96.30
58519;DHT22;44310;48.106;12.008;2023-04-29T05:21:31;17.70;96.20
58519;DHT22;44310;48.106;12.008;2023-04-29T05:23:58;17.70;96.20
58519;DHT22;44310;48.106;12.008;2023-04-29T05:26:25;17.30;96.10
58519;DHT22;44310;48.106;12.008;2023-04-29T05:28:52;17.70;96.20
58519;DHT22;44310;48.106;12.008;2023-04-29T05:31:20;17.70;96.20
58519;DHT22;44310;48.106;12.008;2023-04-29T05:33:47;17.80;96.30
58519;DHT22;44310;48.106;12.008;2023-04-29T05:36:14;17.80;96.20
58519;DHT22;44310;48.106;12.008;2023-04-29T05:38:41;17.80;96.20
58519;DHT22;44310;48.106;12.008;2023-04-29T05:41:09;17.80;96.20
58519;DHT22;44310;48.106;12.008;2023-04-29T05:43:36;17.80;96.10
58519;DHT22;44310;48.106;12.008;2023-04-29T05:46:04;17.80;96.10
58519;DHT22;44310;48.106;12.008;2023-04-29T05:48:31;17.80;96.00
58519;DHT22;44310;48.106;12.008;2023-04-29T05:50:59;17.80;96.00
58519;DHT22;44310;48.106;12.008;2023-04-29T05:53:26;17.80;96.00
58519;DHT22;44310;48.106;12.008;2023-04-29T05:55:53;17.70;95.90
58519;DHT22;44310;48.106;12.008;2023-04-29T05:58:20;17.80;96.00
58519;DHT22;44310;48.106;12.008;2023-04-29T06:00:47;17.80;96.00
58519;DHT22;44310;48.106;12.008;2023-04-29T06:03:15;17.80;96.00
58519;DHT22;44310;48.106;12.008;2023-04-29T06:05:43;17.80;96.00
58519;DHT22;44310;48.106;12.008;2023-04-29T06:08:10;17.70;95.90
58519;DHT22;44310;48.106;12.008;2023-04-29T06:10:37;17.90;95.90
58519;DHT22;44310;48.106;12.008;2023-04-29T06:13:04;17.90;95.90
58519;DHT22;44310;48.106;12.008;2023-04-29T06:15:32;17.80;95.90
58519;DHT22;44310;48.106;12.008;2023-04-29T06:17:59;17.10;95.70
58519;DHT22;44310;48.106;12.008;2023-04-29T06:20:26;17.80;95.90
58519;DHT22;44310;48.106;12.008;2023-04-29T06:22:53;18.00;95.90
58519;DHT22;44310;48.106;12.008;2023-04-29T06:25:20;17.60;95.80
58519;DHT22;44310;48.106;12.008;2023-04-29T06:27:48;17.70;95.80
58519;DHT22;44310;48.106;12.008;2023-04-29T06:30:16;17.80;95.80
58519;DHT22;44310;48.106;12.008;2023-04-29T06:32:43;17.80;95.70
58519;DHT22;44310;48.106;12.008;2023-04-29T06:35:10;17.80;95.70
58519;DHT22;44310;48.106;12.008;2023-04-29T06:37:37;17.80;95.70
58519;DHT22;44310;48.106;12.008;2023-04-29T06:40:05;18.20;95.70
58519;DHT22;44310;48.106;12.008;2023-04-29T06:42:33;17.80;95.60
58519;DHT22;44310;48.106;12.008;2023-04-29T06:45:00;17.90;95.70
58519;DHT22;44310;48.106;12.008;2023-04-29T06:47:27;17.70;95.60
58519;DHT22;44310;48.106;12.008;2023-04-29T06:49:55;17.70;95.50
58519;DHT22;44310;48.106;12.008;2023-04-29T06:52:22;17.70;95.50
58519;DHT22;44310;48.106;12.008;2023-04-29T06:54:49;17.70;95.40
58519;DHT22;44310;48.106;12.008;2023-04-29T06:57:16;17.70;95.40
58519;DHT22;44310;48.106;12.008;2023-04-29T06:59:46;17.70;95.40
58519;DHT22;44310;48.106;12.008;2023-04-29T07:02:13;17.70;95.40
58519;DHT22;44310;48.106;12.008;2023-04-29T07:04:40;17.80;95.40
58519;DHT22;44310;48.106;12.008;2023-04-29T07:07:07;17.70;95.30
58519;DHT22;44310;48.106;12.008;2023-04-29T07:09:35;17.80;95.40
58519;DHT22;44310;48.106;12.008;2023-04-29T07:12:02;17.80;95.30
58519;DHT22;44310;48.106;12.008;2023-04-29T07:14:30;17.80;95.40
58519;DHT22;44310;48.106;12.008;2023-04-29T07:16:58;17.80;95.30
58519;DHT22;44310;48.106;12.008;2023-04-29T07:19:25;17.80;95.10
58519;DHT22;44310;48.106;12.008;2023-04-29T07:21:52;17.40;94.10
58519;DHT22;44310;48.106;12.008;2023-04-29T07:24:20;17.40;95.10
58519;DHT22;44310;48.106;12.008;2023-04-29T07:26:48;17.40;94.90
58519;DHT22;44310;48.106;12.008;2023-04-29T07:29:16;17.30;95.10
58519;DHT22;44310;48.106;12.008;2023-04-29T07:31:43;17.30;95.30
58519;DHT22;44310;48.106;12.008;2023-04-29T07:34:10;17.30;95.40
58519;DHT22;44310;48.106;12.008;2023-04-29T07:36:37;17.50;95.60
58519;DHT22;44310;48.106;12.008;2023-04-29T07:39:04;17.60;95.70
58519;DHT22;44310;48.106;12.008;2023-04-29T07:41:31;17.60;95.70
58519;DHT22;44310;48.106;12.008;2023-04-29T07:43:58;17.70;95.80
58519;DHT22;44310;48.106;12.008;2023-04-29T07:46:26;17.70;95.80
58519;DHT22;44310;48.106;12.008;2023-04-29T07:48:53;17.80;95.80
58519;DHT22;44310;48.106;12.008;2023-04-29T07:51:20;17.80;95.80
58519;DHT22;44310;48.106;12.008;2023-04-29T07:53:47;17.80;95.90
58519;DHT22;44310;48.106;12.008;2023-04-29T07:56:14;17.80;96.00
58519;DHT22;44310;48.106;12.008;2023-04-29T07:58:42;17.80;96.00
58519;DHT22;44310;48.106;12.008;2023-04-29T08:01:09;17.90;96.00
58519;DHT22;44310;48.106;12.008;2023-04-29T08:03:37;17.80;96.00
58519;DHT22;44310;48.106;12.008;2023-04-29T08:06:07;17.80;96.00
58519;DHT22;44310;48.106;12.008;2023-04-29T08:08:35;17.80;96.00
58519;DHT22;44310;48.106;12.008;2023-04-29T08:11:02;17.90;96.00
58519;DHT22;44310;48.106;12.008;2023-04-29T08:13:29;17.90;96.00
58519;DHT22;44310;48.106;12.008;2023-04-29T08:15:56;17.90;96.00
58519;DHT22;44310;48.106;12.008;2023-04-29T08:18:24;17.90;96.00
58519;DHT22;44310;48.106;12.008;2023-04-29T08:20:51;17.90;95.90
58519;DHT22;44310;48.106;12.008;2023-04-29T08:23:18;17.90;95.90
58519;DHT22;44310;48.106;12.008;2023-04-29T08:25:45;17.90;95.90
58519;DHT22;44310;48.106;12.008;2023-04-29T08:28:12;17.90;95.80
58519;DHT22;44310;48.106;12.008;2023-04-29T08:30:40;17.80;95.70
58519;DHT22;44310;48.106;12.008;2023-04-29T08:33:07;17.80;95.50
58519;DHT22;44310;48.106;12.008;2023-04-29T08:35:35;17.70;95.30
58519;DHT22;44310;48.106;12.008;2023-04-29T08:38:05;17.60;95.20
58519;DHT22;44310;48.106;12.008;2023-04-29T08:40:43;17.50;94.50
58519;DHT22;44310;48.106;12.008;2023-04-29T08:43:15;17.40;94.40
58519;DHT22;44310;48.106;12.008;2023-04-29T08:45:43;17.70;94.30
58519;DHT22;44310;48.106;12.008;2023-04-29T08:48:10;17.10;93.60
58519;DHT22;44310;48.106;12.008;2023-04-29T08:50:39;17.00;94.30
58519;DHT22;44310;48.106;12.008;2023-04-29T08:53:08;16.90;93.20
58519;DHT22;44310;48.106;12.008;2023-04-29T08:55:48;16.80;93.10
58519;DHT22;44310;48.106;12.008;2023-04-29T08:58:15;16.90;94.10
58519;DHT22;44310;48.106;12.008;2023-04-29T09:00:43;16.80;93.90
58519;DHT22;44310;48.106;12.008;2023-04-29T09:03:21;16.90;94.60
58519;DHT22;44310;48.106;12.008;2023-04-29T09:05:53;17.00;94.80
58519;DHT22;44310;48.106;12.008;2023-04-29T09:08:22;17.10;94.10
58519;DHT22;44310;48.106;12.008;2023-04-29T09:10:53;17.00;94.10
58519;DHT22;44310;48.106;12.008;2023-04-29T09:13:28;17.10;93.70
58519;DHT22;44310;48.106;12.008;2023-04-29T09:15:56;17.00;94.00
58519;DHT22;44310;48.106;12.008;2023-04-29T09:21:28;16.90;93.30
58519;DHT22;44310;48.106;12.008;2023-04-29T09:24:00;17.00;93.70
58519;DHT22;44310;48.106;12.008;2023-04-29T09:26:40;16.90;93.40
58519;DHT22;44310;48.106;12.008;2023-04-29T09:29:13;17.10;93.00
58519;DHT22;44310;48.106;12.008;2023-04-29T09:31:42;17.50;93.30
58519;DHT22;44310;48.106;12.008;2023-04-29T09:34:09;17.10;93.50
58519;DHT22;44310;48.106;12.008;2023-04-29T09:36:47;17.20;93.90
58519;DHT22;44310;48.106;12.008;2023-04-29T09:39:19;17.20;94.20
58519;DHT22;44310;48.106;12.008;2023-04-29T09:44:26;17.60;94.70
58519;DHT22;44310;48.106;12.008;2023-04-29T09:46:58;17.70;94.80
58519;DHT22;44310;48.106;12.008;2023-04-29T09:52:10;17.80;95.10
58519;DHT22;44310;48.106;12.008;2023-04-29T09:54:39;17.80;95.20
58519;DHT22;44310;48.106;12.008;2023-04-29T09:57:09;17.90;95.20
58519;DHT22;44310;48.106;12.008;2023-04-29T09:59:39;17.80;95.30
58519;DHT22;44310;48.106;12.008;2023-04-29T10:02:13;17.80;95.30
58519;DHT22;44310;48.106;12.008;2023-04-29T10:04:52;17.80;95.30
58519;DHT22;44310;48.106;12.008;2023-04-29T10:07:21;17.90;95.40
58519;DHT22;44310;48.106;12.008;2023-04-29T10:09:48;17.90;95.50
58519;DHT22;44310;48.106;12.008;2023-04-29T10:12:18;17.90;95.50
58519;DHT22;44310;48.106;12.008;2023-04-29T10:15:02;17.90;95.40
58519;DHT22;44310;48.106;12.008;2023-04-29T10:17:45;17.90;95.50
58519;DHT22;44310;48.106;12.008;2023-04-29T10:20:14;17.90;95.50
58519;DHT22;44310;48.106;12.008;2023-04-29T10:22:48;17.80;95.50
58519;DHT22;44310;48.106;12.008;2023-04-29T10:25:17;17.90;95.50
58519;DHT22;44310;48.106;12.008;2023-04-29T10:27:45;18.10;95.60
58519;DHT22;44310;48.106;12.008;2023-04-29T10:30:14;17.80;95.50
58519;DHT22;44310;48.106;12.008;2023-04-29T10:32:43;17.80;95.60
58519;DHT22;44310;48.106;12.008;2023-04-29T10:35:20;18.00;95.60
58519;DHT22;44310;48.106;12.008;2023-04-29T10:37:53;17.90;95.50
58519;DHT22;44310;48.106;12.008;2023-04-29T10:40:34;17.80;95.50
58519;DHT22;44310;48.106;12.008;2023-04-29T10:43:02;18.00;95.60
58519;DHT22;44310;48.106;12.008;2023-04-29T10:45:31;18.40;95.70
58519;DHT22;44310;48.106;12.008;2023-04-29T10:53:18;17.80;95.40
58519;DHT22;44310;48.106;12.008;2023-04-29T10:55:47;17.80;95.40
58519;DHT22;44310;48.106;12.008;2023-04-29T11:01:04;17.70;95.40
58519;DHT22;44310;48.106;12.008;2023-04-29T11:03:54;17.40;95.30
58519;DHT22;44310;48.106;12.008;2023-04-29T11:06:50;17.70;95.40
58519;DHT22;44310;48.106;12.008;2023-04-29T11:09:29;17.80;95.50
58519;DHT22;44310;48.106;12.008;2023-04-29T11:12:06;17.70;95.40
58519;DHT22;44310;48.106;12.008;2023-04-29T11:14:41;17.80;95.70
58519;DHT22;44310;48.106;12.008;2023-04-29T11:17:13;17.20;95.70
58519;DHT22;44310;48.106;12.008;2023-04-29T11:19:46;17.90;96.00
58519;DHT22;44310;48.106;12.008;2023-04-29T11:24:57;17.90;95.90
58519;DHT22;44310;48.106;12.008;2023-04-29T11:27:33;17.90;95.80
58519;DHT22;44310;48.106;12.008;2023-04-29T11:30:02;17.90;95.40
58519;DHT22;44310;48.106;12.008;2023-04-29T11:32:33;17.80;96.60
58519;DHT22;44310;48.106;12.008;2023-04-29T11:35:26;17.80;96.50
58519;DHT22;44310;48.106;12.008;2023-04-29T11:37:53;17.70;95.80
58519;DHT22;44310;48.106;12.008;2023-04-29T11:40:21;17.70;96.00
58519;DHT22;44310;48.106;12.008;2023-04-29T11:42:48;17.60;95.20
58519;DHT22;44310;48.106;12.008;2023-04-29T11:45:17;17.50;94.00
58519;DHT22;44310;48.106;12.008;2023-04-29T11:47:45;17.30;93.40
58519;DHT22;44310;48.106;12.008;2023-04-29T11:50:14;17.20;94.40
58519;DHT22;44310;48.106;12.008;2023-04-29T11:52:45;17.40;94.80
58519;DHT22;44310;48.106;12.008;2023-04-29T11:55:13;17.40;95.30
58519;DHT22;44310;48.106;12.008;2023-04-29T11:57:40;17.70;95.40
58519;DHT22;44310;48.106;12.008;2023-04-29T12:00:11;17.60;95.30
58519;DHT22;44310;48.106;12.008;2023-04-29T12:02:43;17.70;95.00
58519;DHT22;44310;48.106;12.008;2023-04-29T12:05:12;17.40;94.80
58519;DHT22;44310;48.106;12.008;2023-04-29T12:07:40;17.70;94.80
58519;DHT22;44310;48.106;12.008;2023-04-29T12:10:10;17.70;94.70
58519;DHT22;44310;48.106;12.008;2023-04-29T12:12:39;17.80;94.70
58519;DHT22;44310;48.106;12.008;2023-04-29T12:15:12;17.80;94.70
58519;DHT22;44310;48.106;12.008;2023-04-29T12:17:41;17.80;94.40
58519;DHT22;44310;48.106;12.008;2023-04-29T12:20:09;17.80;92.20
58519;DHT22;44310;48.106;12.008;2023-04-29T12:22:37;17.60;92.10
58519;DHT22;44310;48.106;12.008;2023-04-29T12:25:05;17.70;93.10
58519;DHT22;44310;48.106;12.008;2023-04-29T12:27:58;17.70;93.10
58519;DHT22;44310;48.106;12.008;2023-04-29T12:30:26;17.60;93.20
58519;DHT22;44310;48.106;12.008;2023-04-29T12:32:53;17.80;93.60
58519;DHT22;44310;48.106;12.008;2023-04-29T12:35:20;17.90;93.80
58519;DHT22;44310;48.106;12.008;2023-04-29T12:37:48;17.80;89.90
58519;DHT22;44310;48.106;12.008;2023-04-29T12:40:16;17.40;89.50
58519;DHT22;44310;48.106;12.008;2023-04-29T12:42:46;17.40;84.10
58519;DHT22;44310;48.106;12.008;2023-04-29T12:45:29;17.20;83.50
58519;DHT22;44310;48.106;12.008;2023-04-29T12:47:58;17.30;84.30
58519;DHT22;44310;48.106;12.008;2023-04-29T12:50:30;17.40;83.50
58519;DHT22;44310;48.106;12.008;2023-04-29T12:52:59;17.60;86.30
58519;DHT22;44310;48.106;12.008;2023-04-29T12:55:26;17.70;88.90
58519;DHT22;44310;48.106;12.008;2023-04-29T12:57:54;17.90;89.60
58519;DHT22;44310;48.106;12.008;2023-04-29T13:00:21;18.00;85.10
58519;DHT22;44310;48.106;12.008;2023-04-29T13:02:48;18.00;80.30
58519;DHT22;44310;48.106;12.008;2023-04-29T13:05:15;17.90;79.10
58519;DHT22;44310;48.106;12.008;2023-04-29T13:07:43;17.90;77.30
58519;DHT22;44310;48.106;12.008;2023-04-29T13:10:10;17.90;80.30
58519;DHT22;44310;48.106;12.008;2023-04-29T13:12:57;17.80;76.10
58519;DHT22;44310;48.106;12.008;2023-04-29T13:15:25;17.80;77.40
58519;DHT22;44310;48.106;12.008;2023-04-29T13:17:53;18.00;80.70
58519;DHT22;44310;48.106;12.008;2023-04-29T13:20:21;18.20;83.40
58519;DHT22;44310;48.106;12.008;2023-04-29T13:22:48;18.30;79.20
58519;DHT22;44310;48.106;12.008;2023-04-29T13:25:15;18.30;81.60
58519;DHT22;44310;48.106;12.008;2023-04-29T13:27:42;18.40;83.00
58519;DHT22;44310;48.106;12.008;2023-04-29T13:30:10;18.10;80.40
58519;DHT22;44310;48.106;12.008;2023-04-29T13:32:37;18.60;76.50
58519;DHT22;44310;48.106;12.008;2023-04-29T13:35:17;18.50;74.70
58519;DHT22;44310;48.106;12.008;2023-04-29T13:37:44;18.50;73.80
58519;DHT22;44310;48.106;12.008;2023-04-29T13:40:11;18.60;78.10
58519;DHT22;44310;48.106;12.008;2023-04-29T13:42:47;18.60;79.90
58519;DHT22;44310;48.106;12.008;2023-04-29T13:45:22;18.50;80.30
58519;DHT22;44310;48.106;12.008;2023-04-29T13:47:49;18.60;81.70
58519;DHT22;44310;48.106;12.008;2023-04-29T13:50:19;18.30;81.70
58519;DHT22;44310;48.106;12.008;2023-04-29T13:53:07;18.50;82.60
58519;DHT22;44310;48.106;12.008;2023-04-29T13:55:37;18.50;83.20
58519;DHT22;44310;48.106;12.008;2023-04-29T13:58:24;18.50;83.60
58519;DHT22;44310;48.106;12.008;2023-04-29T14:00:54;18.40;83.50
58519;DHT22;44310;48.106;12.008;2023-04-29T14:03:24;18.40;84.30
58519;DHT22;44310;48.106;12.008;2023-04-29T14:05:52;18.40;84.40
58519;DHT22;44310;48.106;12.008;2023-04-29T14:08:19;18.40;85.10
58519;DHT22;44310;48.106;12.008;2023-04-29T14:10:46;18.40;85.30
58519;DHT22;44310;48.106;12.008;2023-04-29T14:13:13;17.80;85.40
58519;DHT22;44310;48.106;12.008;2023-04-29T14:15:40;18.30;86.00
58519;DHT22;44310;48.106;12.008;2023-04-29T14:18:08;18.30;86.50
58519;DHT22;44310;48.106;12.008;2023-04-29T14:20:36;18.30;86.50
58519;DHT22;44310;48.106;12.008;2023-04-29T14:23:03;18.30;86.90
58519;DHT22;44310;48.106;12.008;2023-04-29T14:25:30;18.30;87.00
58519;DHT22;44310;48.106;12.008;2023-04-29T14:27:59;18.30;87.30
58519;DHT22;44310;48.106;12.008;2023-04-29T14:30:27;18.20;87.30
58519;DHT22;44310;48.106;12.008;2023-04-29T14:32:54;18.20;87.20
58519;DHT22;44310;48.106;12.008;2023-04-29T14:35:21;17.40;87.30
58519;DHT22;44310;48.106;12.008;2023-04-29T14:37:48;18.20;88.00
58519;DHT22;44310;48.106;12.008;2023-04-29T14:40:16;18.10;87.70
58519;DHT22;44310;48.106;12.008;2023-04-29T14:42:43;18.20;87.60
58519;DHT22;44310;48.106;12.008;2023-04-29T14:45:10;18.10;87.40
58519;DHT22;44310;48.106;12.008;2023-04-29T14:47:38;18.20;88.00
58519;DHT22;44310;48.106;12.008;2023-04-29T14:50:06;18.20;88.30
58519;DHT22;44310;48.106;12.008;2023-04-29T14:52:33;18.10;88.50
58519;DHT22;44310;48.106;12.008;2023-04-29T14:55:00;18.20;88.60
58519;DHT22;44310;48.106;12.008;2023-04-29T14:57:27;18.10;88.20
58519;DHT22;44310;48.106;12.008;2023-04-29T14:59:56;18.30;88.70
58519;DHT22;44310;48.106;12.008;2023-04-29T15:02:23;18.10;88.60
58519;DHT22;44310;48.106;12.008;2023-04-29T15:04:50;18.40;88.80
58519;DHT22;44310;48.106;12.008;2023-04-29T15:07:17;18.00;88.60
58519;DHT22;44310;48.106;12.008;2023-04-29T15:09:44;18.00;88.80
58519;DHT22;44310;48.106;12.008;2023-04-29T15:12:11;18.00;89.30
58519;DHT22;44310;48.106;12.008;2023-04-29T15:14:40;18.00;88.50
58519;DHT22;44310;48.106;12.008;2023-04-29T15:17:07;18.00;88.80
58519;DHT22;44310;48.106;12.008;2023-04-29T15:19:34;18.00;89.00
58519;DHT22;44310;48.106;12.008;2023-04-29T15:22:01;17.90;89.00
58519;DHT22;44310;48.106;12.008;2023-04-29T15:24:28;17.30;88.90
58519;DHT22;44310;48.106;12.008;2023-04-29T15:26:55;17.90;89.40
58519;DHT22;44310;48.106;12.008;2023-04-29T15:29:23;17.90;89.10
58519;DHT22;44310;48.106;12.008;2023-04-29T15:31:50;17.90;89.20
58519;DHT22;44310;48.106;12.008;2023-04-29T15:34:17;17.90;89.60
58519;DHT22;44310;48.106;12.008;2023-04-29T15:36:45;18.60;90.00
58519;DHT22;44310;48.106;12.008;2023-04-29T15:39:12;17.90;89.70
58519;DHT22;44310;48.106;12.008;2023-04-29T15:41:39;17.90;89.80
58519;DHT22;44310;48.106;12.008;2023-04-29T15:44:07;17.80;89.70
58519;DHT22;44310;48.106;12.008;2023-04-29T15:46:34;17.90;89.60
58519;DHT22;44310;48.106;12.008;2023-04-29T15:49:01;18.00;89.70
58519;DHT22;44310;48.106;12.008;2023-04-29T15:51:28;17.90;89.80